createdAt,value
2019-04-26T00:00:07.529Z,2.13
2019-04-26T00:02:41.611Z,1.90
2019-04-26T00:05:10.165Z,2.20
2019-04-26T00:07:37.215Z,1.83
2019-04-26T00:10:10.368Z,1.63
2019-04-26T00:12:47.997Z,2.20
2019-04-26T00:15:33.800Z,2.07
2019-04-26T00:18:02.672Z,1.57
2019-04-26T00:20:32.983Z,1.27
2019-04-26T00:23:01.349Z,1.60
2019-04-26T00:25:28.124Z,1.53
2019-04-26T00:27:54.920Z,1.50
2019-04-26T00:30:24.447Z,1.63
2019-04-26T00:32:53.915Z,1.93
2019-04-26T00:35:23.007Z,1.73
2019-04-26T00:37:51.834Z,1.87
2019-04-26T00:40:18.640Z,2.17
2019-04-26T00:42:45.450Z,1.70
2019-04-26T00:45:13.994Z,1.63
2019-04-26T00:47:43.863Z,1.80
2019-04-26T00:50:13.905Z,1.70
2019-04-26T00:52:42.582Z,1.40
2019-04-26T00:55:11.832Z,1.57
2019-04-26T00:57:38.535Z,1.50
2019-04-26T01:00:05.614Z,1.17
2019-04-26T01:02:38.465Z,1.13
2019-04-26T01:05:05.090Z,1.10
2019-04-26T01:07:34.509Z,1.27
2019-04-26T01:10:04.414Z,1.50
2019-04-26T01:12:33.922Z,1.60
2019-04-26T01:15:02.637Z,0.93
2019-04-26T01:17:32.531Z,0.83
2019-04-26T01:20:01.994Z,1.10
2019-04-26T01:22:33.263Z,1.10
2019-04-26T01:25:03.827Z,0.90
2019-04-26T01:27:32.266Z,1.00
2019-04-26T01:30:05.670Z,0.80
2019-04-26T01:32:32.985Z,0.80
2019-04-26T01:35:02.212Z,0.70
2019-04-26T01:37:32.281Z,0.80
2019-04-26T01:40:05.710Z,0.77
2019-04-26T01:43:01.352Z,0.70
2019-04-26T01:45:36.883Z,1.07
2019-04-26T01:48:29.016Z,0.97
2019-04-26T01:50:55.822Z,1.20
2019-04-26T01:53:22.685Z,0.87
2019-04-26T01:55:52.068Z,0.90
2019-04-26T01:58:25.243Z,0.87
2019-04-26T02:01:11.013Z,1.47
2019-04-26T02:03:37.935Z,0.80
2019-04-26T02:06:04.568Z,0.80
2019-04-26T02:08:34.052Z,1.20
2019-04-26T02:11:03.883Z,1.03
2019-04-26T02:13:33.363Z,0.60
2019-04-26T02:15:59.954Z,0.80
2019-04-26T02:18:33.597Z,0.87
2019-04-26T02:21:27.943Z,0.80
2019-04-26T02:24:01.972Z,0.80
2019-04-26T02:26:42.058Z,0.73
2019-04-26T02:29:14.920Z,0.93
2019-04-26T02:31:44.132Z,1.03
2019-04-26T02:34:14.786Z,1.37
2019-04-26T02:36:57.058Z,0.70
2019-04-26T02:39:17.242Z,0.70
2019-04-26T02:41:47.219Z,0.90
2019-04-26T02:44:16.273Z,0.70
2019-04-26T02:46:54.434Z,1.00
2019-04-26T02:49:38.521Z,0.87
2019-04-26T02:52:44.023Z,0.90
2019-04-26T02:55:38.823Z,0.90
2019-04-26T02:58:02.978Z,1.03
2019-04-26T03:00:33.481Z,0.70
2019-04-26T03:03:04.510Z,1.00
2019-04-26T03:05:39.714Z,0.77
2019-04-26T03:08:14.260Z,1.60
2019-04-26T03:10:48.390Z,1.63
2019-04-26T03:13:38.235Z,1.50
2019-04-26T03:16:32.675Z,1.43
2019-04-26T03:19:11.378Z,1.13
2019-04-26T03:22:03.504Z,1.30
2019-04-26T03:24:53.282Z,2.13
2019-04-26T03:27:40.987Z,1.73
2019-04-26T03:30:22.103Z,2.20
2019-04-26T03:33:17.000Z,1.30
2019-04-26T03:36:22.912Z,1.47
2019-04-26T03:39:11.533Z,2.00
2019-04-26T03:42:06.596Z,1.63
2019-04-26T03:44:40.070Z,2.10
2019-04-26T03:47:11.829Z,2.00
2019-04-26T03:50:07.907Z,1.63
2019-04-26T03:53:23.431Z,1.70
2019-04-26T03:56:14.285Z,1.60
2019-04-26T03:59:04.882Z,1.97
2019-04-26T04:01:46.228Z,1.70
2019-04-26T04:04:39.623Z,1.43
2019-04-26T04:07:10.430Z,2.50
2019-04-26T04:09:41.451Z,1.63
2019-04-26T04:12:17.471Z,1.83
2019-04-26T04:14:54.019Z,1.70
2019-04-26T04:17:39.028Z,1.90
2019-04-26T04:20:32.644Z,1.67
2019-04-26T04:23:16.502Z,1.97
2019-04-26T04:25:47.787Z,2.23
2019-04-26T04:28:51.729Z,2.60
2019-04-26T04:31:27.833Z,2.47
2019-04-26T04:34:13.129Z,2.53
2019-04-26T04:36:50.583Z,2.67
2019-04-26T04:39:32.066Z,2.60
2019-04-26T04:42:30.942Z,2.67
2019-04-26T04:45:30.872Z,2.40
2019-04-26T04:48:22.069Z,2.30
2019-04-26T04:51:00.144Z,2.80
2019-04-26T04:53:46.527Z,2.20
2019-04-26T04:56:58.960Z,2.23
2019-04-26T04:59:31.743Z,3.03
2019-04-26T05:02:33.069Z,2.50
2019-04-26T05:05:19.162Z,2.57
2019-04-26T05:08:06.551Z,2.90
2019-04-26T05:10:44.333Z,2.57
2019-04-26T05:13:27.065Z,2.37
2019-04-26T05:16:28.929Z,3.20
2019-04-26T05:19:52.737Z,2.97
2019-04-26T05:23:06.688Z,2.70
2019-04-26T05:26:30.670Z,3.20
2019-04-26T05:29:36.044Z,2.60
2019-04-26T05:32:35.775Z,2.83
2019-04-26T05:35:39.033Z,3.07
2019-04-26T05:38:21.317Z,2.73
2019-04-26T05:41:21.348Z,3.17
2019-04-26T05:44:17.195Z,2.73
2019-04-26T05:47:22.443Z,2.47
2019-04-26T05:51:11.241Z,2.70
2019-04-26T05:54:31.630Z,2.57
2019-04-26T05:57:20.218Z,2.37
2019-04-26T06:00:21.260Z,3.23
2019-04-26T06:03:44.717Z,2.73
2019-04-26T06:07:02.295Z,2.80
2019-04-26T06:10:13.893Z,2.60
2019-04-26T06:13:02.989Z,2.80
2019-04-26T06:15:56.155Z,3.17
2019-04-26T06:18:49.045Z,2.63
2019-04-26T06:21:42.565Z,2.57
2019-04-26T06:24:52.632Z,2.30
2019-04-26T06:27:45.934Z,2.47
2019-04-26T06:30:18.181Z,2.27
2019-04-26T06:33:34.608Z,2.70
2019-04-26T06:36:06.640Z,2.63
2019-04-26T06:39:25.408Z,2.40
2019-04-26T06:42:47.343Z,2.43
2019-04-26T06:46:08.179Z,2.50
2019-04-26T06:48:51.136Z,2.37
2019-04-26T06:51:24.613Z,3.23
2019-04-26T06:54:15.549Z,2.13
2019-04-26T06:57:37.165Z,2.07
2019-04-26T07:00:20.562Z,2.77
2019-04-26T07:03:12.096Z,2.93
2019-04-26T07:05:42.443Z,2.93
2019-04-26T07:08:56.601Z,2.97
2019-04-26T07:12:28.735Z,2.87
2019-04-26T07:15:52.052Z,2.83
2019-04-26T07:18:26.950Z,2.23
2019-04-26T07:21:11.533Z,2.40
2019-04-26T07:24:14.933Z,2.50
2019-04-26T07:27:19.616Z,2.63
2019-04-26T07:30:21.804Z,2.60
2019-04-26T07:33:18.446Z,2.10
2019-04-26T07:35:59.046Z,2.50
2019-04-26T07:39:13.795Z,2.47
2019-04-26T07:42:11.563Z,2.87
2019-04-26T07:45:31.802Z,2.90
2019-04-26T07:48:32.345Z,2.87
2019-04-26T07:51:48.473Z,2.37
2019-04-26T07:55:06.783Z,2.70
2019-04-26T07:58:06.929Z,3.00
2019-04-26T08:00:45.176Z,2.93
2019-04-26T08:03:18.938Z,3.00
2019-04-26T08:06:08.538Z,3.10
2019-04-26T08:08:43.695Z,3.73
2019-04-26T08:11:17.929Z,2.73
2019-04-26T08:14:06.263Z,3.80
2019-04-26T08:16:43.352Z,2.63
2019-04-26T08:19:19.915Z,3.20
2019-04-26T08:21:49.086Z,2.80
2019-04-26T08:24:21.460Z,3.30
2019-04-26T08:27:08.853Z,2.80
2019-04-26T08:29:44.171Z,2.60
2019-04-26T08:32:21.266Z,2.30
2019-04-26T08:35:02.296Z,2.70
2019-04-26T08:37:41.240Z,2.33
2019-04-26T08:40:08.772Z,3.07
2019-04-26T08:42:43.947Z,2.80
2019-04-26T08:46:17.135Z,3.20
2019-04-26T08:48:17.229Z,2.73
2019-04-26T08:50:47.056Z,2.80
2019-04-26T08:53:14.898Z,2.80
2019-04-26T08:55:46.454Z,2.30
2019-04-26T08:58:19.918Z,2.30
2019-04-26T09:01:16.061Z,2.43
2019-04-26T09:03:58.149Z,2.27
2019-04-26T09:06:46.581Z,2.30
2019-04-26T09:09:19.768Z,2.37
2019-04-26T09:11:59.514Z,2.83
2019-04-26T09:14:21.046Z,3.00
2019-04-26T09:16:50.433Z,3.23
2019-04-26T09:19:16.903Z,3.73
2019-04-26T09:21:53.818Z,3.63
2019-04-26T09:24:45.445Z,3.83
2019-04-26T09:27:21.105Z,3.63
2019-04-26T09:30:07.688Z,4.23
2019-04-26T09:33:07.722Z,4.10
2019-04-26T09:35:34.441Z,4.00
2019-04-26T09:38:01.158Z,4.80
2019-04-26T09:40:28.022Z,4.17
2019-04-26T09:43:06.069Z,4.10
2019-04-26T09:45:51.182Z,4.50
2019-04-26T09:48:24.929Z,3.60
2019-04-26T09:50:54.451Z,3.47
2019-04-26T09:53:25.147Z,3.63
2019-04-26T09:55:53.626Z,4.07
2019-04-26T09:58:20.388Z,2.93
2019-04-26T10:00:50.056Z,3.30
2019-04-26T10:03:16.890Z,3.00
2019-04-26T10:05:44.127Z,2.80
2019-04-26T10:08:17.513Z,3.17
2019-04-26T10:10:45.553Z,3.13
2019-04-26T10:13:46.006Z,3.20
2019-04-26T10:16:29.781Z,3.33
2019-04-26T10:19:03.276Z,2.57
2019-04-26T10:21:34.058Z,3.07
2019-04-26T10:24:00.871Z,3.23
2019-04-26T10:26:29.799Z,3.10
2019-04-26T10:29:01.150Z,3.17
2019-04-26T10:31:51.678Z,3.20
2019-04-26T10:34:16.305Z,3.50
2019-04-26T10:36:56.850Z,3.80
2019-04-26T10:39:24.239Z,3.83
2019-04-26T10:41:56.025Z,3.37
2019-04-26T10:44:24.859Z,4.17
2019-04-26T10:46:55.753Z,3.60
2019-04-26T10:49:45.083Z,3.50
2019-04-26T10:52:27.030Z,4.10
2019-04-26T10:55:24.079Z,4.77
2019-04-26T10:57:55.630Z,3.17
2019-04-26T11:00:43.921Z,3.43
2019-04-26T11:03:11.515Z,3.20
2019-04-26T11:05:41.459Z,4.10
2019-04-26T11:08:12.622Z,3.63
2019-04-26T11:10:48.754Z,3.87
2019-04-26T11:13:21.346Z,3.90
2019-04-26T11:15:49.629Z,3.87
2019-04-26T11:18:19.848Z,3.70
2019-04-26T11:20:49.921Z,3.50
2019-04-26T11:23:23.096Z,3.80
2019-04-26T11:26:01.752Z,4.07
2019-04-26T11:28:34.001Z,5.43
2019-04-26T11:31:02.253Z,5.17
2019-04-26T11:33:44.260Z,4.43
2019-04-26T11:36:06.884Z,6.20
2019-04-26T11:38:45.768Z,6.83
2019-04-26T11:41:13.262Z,7.57
2019-04-26T11:43:40.856Z,7.40
2019-04-26T11:46:07.764Z,8.70
2019-04-26T11:48:36.288Z,8.77
2019-04-26T11:51:03.525Z,8.97
2019-04-26T11:53:33.389Z,8.83
2019-04-26T11:56:04.478Z,8.90
2019-04-26T11:58:31.663Z,9.23
2019-04-26T12:01:03.746Z,8.67
2019-04-26T12:03:31.327Z,9.50
2019-04-26T12:06:27.883Z,9.67
2019-04-26T12:09:15.320Z,9.10
2019-04-26T12:11:50.994Z,8.43
2019-04-26T12:14:20.481Z,8.53
2019-04-26T12:16:49.315Z,9.10
2019-04-26T12:19:18.236Z,7.27
2019-04-26T12:21:47.232Z,7.03
2019-04-26T12:24:16.689Z,7.97
2019-04-26T12:26:46.311Z,7.67
2019-04-26T12:29:14.695Z,7.07
2019-04-26T12:31:42.653Z,7.90
2019-04-26T12:34:09.653Z,8.00
2019-04-26T12:36:36.735Z,7.63
2019-04-26T12:39:07.284Z,6.83
2019-04-26T12:41:40.260Z,7.90
2019-04-26T12:44:03.291Z,7.00
2019-04-26T12:46:36.717Z,7.20
2019-04-26T12:49:03.539Z,7.53
2019-04-26T12:51:30.367Z,8.10
2019-04-26T12:53:57.565Z,7.73
2019-04-26T12:56:30.803Z,7.50
2019-04-26T12:58:55.147Z,7.90
2019-04-26T13:01:30.738Z,7.77
2019-04-26T13:04:04.153Z,8.63
2019-04-26T13:06:33.454Z,8.13
2019-04-26T13:09:00.097Z,8.23
2019-04-26T13:11:52.862Z,7.27
2019-04-26T13:14:25.620Z,8.30
2019-04-26T13:17:01.188Z,8.13
2019-04-26T13:19:34.319Z,8.43
2019-04-26T13:22:01.413Z,8.53
2019-04-26T13:24:28.450Z,8.07
2019-04-26T13:26:55.011Z,8.83
2019-04-26T13:29:21.760Z,8.67
2019-04-26T13:31:48.380Z,9.47
2019-04-26T13:34:16.376Z,8.67
2019-04-26T13:36:44.929Z,9.13
2019-04-26T13:39:13.450Z,9.20
2019-04-26T13:42:03.064Z,9.63
2019-04-26T13:44:43.841Z,9.33
2019-04-26T13:47:42.173Z,9.43
2019-04-26T13:50:15.141Z,9.70
2019-04-26T13:52:42.284Z,9.43
2019-04-26T13:55:09.066Z,8.83
2019-04-26T13:57:36.168Z,8.60
2019-04-26T14:00:06.969Z,9.23
2019-04-26T14:02:32.749Z,8.00
2019-04-26T14:04:59.631Z,8.47
2019-04-26T14:07:26.158Z,8.70
2019-04-26T14:09:52.740Z,8.77
2019-04-26T14:12:19.649Z,9.43
2019-04-26T14:14:46.541Z,9.07
2019-04-26T14:17:13.399Z,8.80
2019-04-26T14:19:40.155Z,8.97
2019-04-26T14:22:07.377Z,8.70
2019-04-26T14:24:56.909Z,9.00
2019-04-26T14:27:28.261Z,8.63
2019-04-26T14:29:55.056Z,8.90
2019-04-26T14:32:23.018Z,7.70
2019-04-26T14:34:50.308Z,8.20
2019-04-26T14:37:18.403Z,9.00
2019-04-26T14:39:50.466Z,8.83
2019-04-26T14:42:14.758Z,8.33
2019-04-26T14:44:49.205Z,8.20
2019-04-26T14:47:14.930Z,9.33
2019-04-26T14:49:42.940Z,9.30
2019-04-26T14:52:09.353Z,9.07
2019-04-26T14:54:37.366Z,9.97
2019-04-26T14:57:09.352Z,8.83
2019-04-26T14:59:56.716Z,8.87
2019-04-26T15:02:47.235Z,8.63
2019-04-26T15:05:17.686Z,7.97
2019-04-26T15:07:51.120Z,7.50
2019-04-26T15:10:15.700Z,8.03
2019-04-26T15:12:48.237Z,6.67
2019-04-26T15:15:15.499Z,5.83
2019-04-26T15:17:42.366Z,6.87
2019-04-26T15:20:09.368Z,6.93
2019-04-26T15:22:36.166Z,7.27
2019-04-26T15:25:07.789Z,6.67
2019-04-26T15:27:36.297Z,6.80
2019-04-26T15:30:04.282Z,6.43
2019-04-26T15:32:32.867Z,6.80
2019-04-26T15:35:00.048Z,6.33
2019-04-26T15:37:28.403Z,6.37
2019-04-26T15:40:09.513Z,5.97
2019-04-26T15:42:45.226Z,5.20
2019-04-26T15:45:21.949Z,4.90
2019-04-26T15:48:12.131Z,4.60
2019-04-26T15:50:47.804Z,4.40
2019-04-26T15:53:12.887Z,4.57
2019-04-26T15:55:40.301Z,3.93
2019-04-26T15:58:08.539Z,3.73
2019-04-26T16:00:36.287Z,3.80
2019-04-26T16:03:07.409Z,3.73
2019-04-26T16:05:33.412Z,3.30
2019-04-26T16:08:01.863Z,3.43
2019-04-26T16:10:37.082Z,3.00
2019-04-26T16:13:00.081Z,3.60
2019-04-26T16:15:32.232Z,3.40
2019-04-26T16:18:03.958Z,3.73
2019-04-26T16:20:33.129Z,3.90
2019-04-26T16:23:00.429Z,3.57
2019-04-26T16:25:39.701Z,3.87
2019-04-26T16:28:24.790Z,3.83
2019-04-26T16:31:13.877Z,4.23
2019-04-26T16:33:46.629Z,4.70
2019-04-26T16:36:13.499Z,3.90
2019-04-26T16:38:41.055Z,3.70
2019-04-26T16:41:08.038Z,4.47
2019-04-26T16:44:02.800Z,3.80
2019-04-26T16:46:29.862Z,4.30
2019-04-26T16:49:02.392Z,3.67
2019-04-26T16:51:34.070Z,3.90
2019-04-26T16:54:10.071Z,4.40
2019-04-26T16:56:29.722Z,4.17
2019-04-26T16:58:57.098Z,3.87
2019-04-26T17:01:23.944Z,3.77
2019-04-26T17:03:53.526Z,4.20
2019-04-26T17:06:23.396Z,4.10
2019-04-26T17:08:58.600Z,4.00
2019-04-26T17:11:18.746Z,4.10
2019-04-26T17:13:50.577Z,4.23
2019-04-26T17:16:14.587Z,4.10
2019-04-26T17:18:42.677Z,4.13
2019-04-26T17:21:10.347Z,5.17
2019-04-26T17:24:00.796Z,4.77
2019-04-26T17:26:36.750Z,4.93
2019-04-26T17:29:03.937Z,5.37
2019-04-26T17:31:30.651Z,5.37
2019-04-26T17:34:00.097Z,5.10
2019-04-26T17:36:26.895Z,6.07
2019-04-26T17:38:55.079Z,5.73
2019-04-26T17:41:22.261Z,5.80
2019-04-26T17:44:05.784Z,5.77
2019-04-26T17:46:21.742Z,6.07
2019-04-26T17:48:49.454Z,5.37
2019-04-26T17:51:22.706Z,5.63
2019-04-26T17:53:48.920Z,5.03
2019-04-26T17:56:18.632Z,4.87
2019-04-26T17:58:52.401Z,4.47
2019-04-26T18:01:39.086Z,4.03
2019-04-26T18:03:50.747Z,4.00
2019-04-26T18:06:14.022Z,3.40
2019-04-26T18:08:51.741Z,2.70
2019-04-26T18:11:18.982Z,2.63
2019-04-26T18:13:38.828Z,2.70
2019-04-26T18:16:05.703Z,2.53
2019-04-26T18:19:08.067Z,2.70
2019-04-26T18:21:56.012Z,2.70
2019-04-26T18:24:20.255Z,2.90
2019-04-26T18:26:52.299Z,2.67
2019-04-26T18:29:17.706Z,2.97
2019-04-26T18:31:44.547Z,2.60
2019-04-26T18:34:12.817Z,2.73
2019-04-26T18:36:39.577Z,2.63
2019-04-26T18:39:07.158Z,2.53
2019-04-26T18:41:34.069Z,3.00
2019-04-26T18:44:14.004Z,2.50
2019-04-26T18:46:59.182Z,2.20
2019-04-26T18:49:27.136Z,2.67
2019-04-26T18:51:54.683Z,2.77
2019-04-26T18:54:37.030Z,1.90
2019-04-26T18:57:04.237Z,2.10
2019-04-26T18:59:34.304Z,2.30
2019-04-26T19:02:00.891Z,2.67
2019-04-26T19:04:30.674Z,3.10
2019-04-26T19:06:57.995Z,2.70
2019-04-26T19:09:31.078Z,3.00
2019-04-26T19:12:04.456Z,2.87
2019-04-26T19:14:49.767Z,3.30
2019-04-26T19:17:33.789Z,3.10
2019-04-26T19:20:26.517Z,2.83
2019-04-26T19:23:02.985Z,3.20
2019-04-26T19:25:38.676Z,3.83
2019-04-26T19:28:08.296Z,2.97
2019-04-26T19:30:35.616Z,3.33
2019-04-26T19:33:02.320Z,3.13
2019-04-26T19:35:29.041Z,2.90
2019-04-26T19:38:16.547Z,2.90
2019-04-26T19:40:47.604Z,2.73
2019-04-26T19:43:12.914Z,2.77
2019-04-26T19:45:49.879Z,3.70
2019-04-26T19:48:22.968Z,3.70
2019-04-26T19:50:54.704Z,3.27
2019-04-26T19:53:42.213Z,4.00
2019-04-26T19:56:12.731Z,3.40
2019-04-26T19:58:39.649Z,4.83
2019-04-26T20:01:06.522Z,4.43
2019-04-26T20:03:33.925Z,4.40
2019-04-26T20:06:01.115Z,4.80
2019-04-26T20:08:29.414Z,5.50
2019-04-26T20:10:56.280Z,4.50
2019-04-26T20:13:23.573Z,5.07
2019-04-26T20:15:51.569Z,5.20
2019-04-26T20:18:21.376Z,5.10
2019-04-26T20:20:48.058Z,5.20
2019-04-26T20:23:14.948Z,5.23
2019-04-26T20:25:41.771Z,7.37
2019-04-26T20:28:14.020Z,6.47
2019-04-26T20:30:52.450Z,5.77
2019-04-26T20:33:19.155Z,6.37
2019-04-26T20:35:46.004Z,5.40
2019-04-26T20:38:14.611Z,5.97
2019-04-26T20:40:43.543Z,6.07
2019-04-26T20:43:22.934Z,6.33
2019-04-26T20:45:41.853Z,6.47
2019-04-26T20:48:08.127Z,7.70
2019-04-26T20:50:36.751Z,7.40
2019-04-26T20:53:03.810Z,6.90
2019-04-26T20:55:34.312Z,6.77
2019-04-26T20:57:59.946Z,7.77
2019-04-26T21:00:27.114Z,8.77
2019-04-26T21:03:01.595Z,8.07
2019-04-26T21:05:22.795Z,8.77
2019-04-26T21:07:51.092Z,8.47
2019-04-26T21:10:22.058Z,8.70
2019-04-26T21:12:52.301Z,8.10
2019-04-26T21:15:20.210Z,8.17
2019-04-26T21:17:56.626Z,7.13
2019-04-26T21:20:27.680Z,7.40
2019-04-26T21:22:53.268Z,6.97
2019-04-26T21:25:41.973Z,5.60
2019-04-26T21:28:22.096Z,5.50
2019-04-26T21:31:03.473Z,5.50
2019-04-26T21:33:38.997Z,4.33
2019-04-26T21:36:13.961Z,4.70
2019-04-26T21:38:51.007Z,4.47
2019-04-26T21:41:20.403Z,4.30
2019-04-26T21:43:57.187Z,4.83
2019-04-26T21:46:23.757Z,4.57
2019-04-26T21:48:50.336Z,4.10
2019-04-26T21:51:17.104Z,3.93
2019-04-26T21:53:52.950Z,3.50
2019-04-26T21:56:20.830Z,3.93
2019-04-26T21:58:47.367Z,3.60
2019-04-26T22:01:19.313Z,3.90
2019-04-26T22:03:53.698Z,3.97
2019-04-26T22:06:14.511Z,3.37
2019-04-26T22:08:49.525Z,4.00
2019-04-26T22:11:20.048Z,3.67
2019-04-26T22:13:53.888Z,4.33
2019-04-26T22:16:34.155Z,4.20
2019-04-26T22:19:27.906Z,4.17
2019-04-26T22:22:04.237Z,4.47
2019-04-26T22:24:33.791Z,4.40
2019-04-26T22:27:00.757Z,4.10
2019-04-26T22:29:27.354Z,5.03
2019-04-26T22:31:54.850Z,4.97
2019-04-26T22:34:21.410Z,5.20
2019-04-26T22:36:49.467Z,4.60
2019-04-26T22:39:16.966Z,4.73
2019-04-26T22:41:43.767Z,4.30
2019-04-26T22:44:16.754Z,4.60
2019-04-26T22:47:03.564Z,4.93
2019-04-26T22:49:29.904Z,5.13
2019-04-26T22:51:56.478Z,5.10
2019-04-26T22:54:24.915Z,5.13
2019-04-26T22:56:53.939Z,5.93
2019-04-26T22:59:20.523Z,5.70
2019-04-26T23:01:48.737Z,6.13
2019-04-26T23:04:22.696Z,6.33
2019-04-26T23:06:46.977Z,5.70
2019-04-26T23:09:16.796Z,6.30
2019-04-26T23:11:43.900Z,5.77
2019-04-26T23:14:19.242Z,5.90
2019-04-26T23:17:11.551Z,6.43
2019-04-26T23:19:44.676Z,5.63
2019-04-26T23:22:12.854Z,6.00
2019-04-26T23:24:39.484Z,5.37
2019-04-26T23:27:16.530Z,6.30
2019-04-26T23:29:45.910Z,6.47
2019-04-26T23:32:18.576Z,6.53
2019-04-26T23:34:41.268Z,6.60
2019-04-26T23:37:08.038Z,5.97
2019-04-26T23:39:34.620Z,6.17
2019-04-26T23:42:01.130Z,6.17
2019-04-26T23:44:27.768Z,6.47
2019-04-26T23:47:00.848Z,6.83
2019-04-26T23:49:25.301Z,6.23
2019-04-26T23:51:53.340Z,6.73
2019-04-26T23:54:20.082Z,6.83
2019-04-26T23:56:47.185Z,7.03
2019-04-26T23:59:24.780Z,6.50
